Time;durP1;ratioP1;P1;durP2;ratioP2;P2;SDS_P1;SDS_P2;PMS_P1;PMS_P2;Temp;Humidity;BMP_temperature;BMP_pressure;BME280_temperature;BME280_humidity;BME280_pressure;Samples;Min_cycle;Max_cycle;Signal;HPM_P1;HPM_P2
2023/06/11 00:08:00;;;;;;;10.6;8.2;;;;;;;15.3;82.7;98810;;;;
2023/06/11 00:18:59;;;;;;;12.3;8.4;;;;;;;15.2;83;98810;;;;
2023/06/11 00:28:59;;;;;;;12.3;8.4;;;;;;;15.2;82.9;98810;;;;
2023/06/11 00:38:59;;;;;;;12.3;8.4;;;;;;;14.9;84;98820;;;;
2023/06/11 00:49:00;;;;;;;10.4;8.6;;;;;;;15;84.2;98820;;;;
2023/06/11 01:00:00;;;;;;;10.4;8.6;;;;;;;14.9;85;98820;;;;
2023/06/11 01:11:01;;;;;;;10.4;8.6;;;;;;;15;84.7;98820;;;;
2023/06/11 01:20:59;;;;;;;15.3;10;;;;;;;15;84.7;98830;;;;
2023/06/11 01:31:59;;;;;;;15.3;10;;;;;;;15.2;84.1;98820;;;;
2023/06/11 01:41:59;;;;;;;15.3;10;;;;;;;15.2;84.2;98830;;;;
2023/06/11 01:52:59;;;;;;;13.7;11.5;;;;;;;15.2;84.2;98820;;;;
2023/06/11 02:03:01;;;;;;;13.7;11.5;;;;;;;15.2;84.3;98830;;;;
2023/06/11 02:12:59;;;;;;;13.7;11.5;;;;;;;15.2;84.8;98820;;;;
2023/06/11 02:22:59;;;;;;;13.3;11.4;;;;;;;15.2;84.9;98830;;;;
2023/06/11 02:33:59;;;;;;;13.3;11.4;;;;;;;15.1;84.9;98840;;;;
2023/06/11 02:44:59;;;;;;;13.3;11.4;;;;;;;15.2;84.6;98840;;;;
2023/06/11 02:54:59;;;;;;;14.4;11.8;;;;;;;15.3;84;98840;;;;
2023/06/11 03:06:00;;;;;;;14.4;11.8;;;;;;;15.2;84.1;98850;;;;
2023/06/11 03:15:59;;;;;;;14.4;11.8;;;;;;;15.3;83.5;98850;;;;
2023/06/11 03:26:59;;;;;;;14.2;12;;;;;;;15.2;83.2;98840;;;;
2023/06/11 03:36:59;;;;;;;14.2;12;;;;;;;15.3;83.1;98850;;;;
2023/06/11 03:48:02;;;;;;;12.5;10.5;;;;;;;15.5;82.5;98850;;;;
2023/06/11 03:57:59;;;;;;;12.5;10.5;;;;;;;15.4;82.3;98860;;;;
2023/06/11 04:08:59;;;;;;;12.5;10.5;;;;;;;15.4;82.3;98870;;;;
2023/06/11 04:19:59;;;;;;;13.5;10.1;;;;;;;15.5;82;98880;;;;
2023/06/11 04:29:59;;;;;;;13.5;10.1;;;;;;;15.6;81.9;98880;;;;
2023/06/11 04:40:03;;;;;;;13.5;10.1;;;;;;;15.7;81;98890;;;;
2023/06/11 04:51:00;;;;;;;11.4;9;;;;;;;15.6;81.2;98890;;;;
2023/06/11 05:00:59;;;;;;;11.4;9;;;;;;;15.6;81.3;98910;;;;
2023/06/11 05:10:59;;;;;;;11.4;9;;;;;;;15.6;80.6;98900;;;;
2023/06/11 05:21:59;;;;;;;13.9;9.9;;;;;;;16;80.1;98910;;;;
2023/06/11 05:32:00;;;;;;;13.9;9.9;;;;;;;15.9;79.3;98900;;;;
2023/06/11 05:41:59;;;;;;;13.9;9.9;;;;;;;15.9;79.5;98910;;;;
2023/06/11 05:52:59;;;;;;;13.2;10.3;;;;;;;16;79.1;98920;;;;
2023/06/11 06:03:01;;;;;;;13.2;10.3;;;;;;;16;78.7;98940;;;;
2023/06/11 06:12:59;;;;;;;13.2;10.3;;;;;;;15.8;78.6;98940;;;;
2023/06/11 06:22:59;;;;;;;12;8.7;;;;;;;16;77;98950;;;;
2023/06/11 06:33:59;;;;;;;12;8.7;;;;;;;16.3;75.9;98960;;;;
2023/06/11 06:44:59;;;;;;;12;8.7;;;;;;;16.2;76.1;98960;;;;
2023/06/11 06:54:59;;;;;;;11.5;9.5;;;;;;;16.3;76.4;98970;;;;
2023/06/11 07:05:59;;;;;;;11.5;9.5;;;;;;;16.5;73.7;98970;;;;
2023/06/11 07:15:59;;;;;;;11.5;9.5;;;;;;;16.5;73.7;98980;;;;
2023/06/11 07:26:59;;;;;;;13.7;9.6;;;;;;;16.9;73.5;98990;;;;
2023/06/11 07:36:59;;;;;;;13.7;9.6;;;;;;;17.1;72.9;98990;;;;
2023/06/11 07:47:59;;;;;;;13.1;8.2;;;;;;;17;72;98990;;;;
2023/06/11 07:57:59;;;;;;;13.1;8.2;;;;;;;17.4;71.2;98990;;;;
2023/06/11 08:08:59;;;;;;;13.1;8.2;;;;;;;18.1;68.2;98980;;;;
2023/06/11 08:19:59;;;;;;;10;7;;;;;;;18.3;67.4;98980;;;;
2023/06/11 08:30:59;;;;;;;10;7;;;;;;;18.9;66;98980;;;;
2023/06/11 08:40:59;;;;;;;10;7;;;;;;;19.1;65.1;98990;;;;
2023/06/11 08:51:59;;;;;;;9.4;6.4;;;;;;;19;64.3;98990;;;;
2023/06/11 09:02:59;;;;;;;9.4;6.4;;;;;;;19.3;63.8;98980;;;;
2023/06/11 09:13:59;;;;;;;9.4;6.4;;;;;;;20.3;61.4;98970;;;;
2023/06/11 09:24:00;;;;;;;9.7;5.5;;;;;;;20.9;60.1;98970;;;;
2023/06/11 09:35:00;;;;;;;9.7;5.5;;;;;;;20.1;60.7;98970;;;;
2023/06/11 09:44:59;;;;;;;9.7;5.5;;;;;;;20;61.7;98970;;;;
2023/06/11 09:54:59;;;;;;;7.4;4.6;;;;;;;20.1;61.6;98970;;;;
2023/06/11 10:04:59;;;;;;;7.4;4.6;;;;;;;20.3;62.2;98970;;;;
2023/06/11 10:14:59;;;;;;;7.4;4.6;;;;;;;20.7;60.3;98970;;;;
2023/06/11 10:25:59;;;;;;;8.9;4.3;;;;;;;21.4;59.3;98970;;;;
2023/06/11 10:35:59;;;;;;;8.9;4.3;;;;;;;21.5;56.4;98980;;;;
2023/06/11 10:45:59;;;;;;;8.9;4.3;;;;;;;21.4;56.4;98970;;;;
2023/06/11 10:55:59;;;;;;;6.5;4.1;;;;;;;21.1;55;98970;;;;
2023/06/11 11:05:59;;;;;;;6.5;4.1;;;;;;;20.5;57;98970;;;;
2023/06/11 11:17:00;;;;;;;7.2;4.1;;;;;;;20.6;57.2;98960;;;;
2023/06/11 11:27:59;;;;;;;7.2;4.1;;;;;;;21.1;56;98950;;;;
2023/06/11 11:38:59;;;;;;;7.2;4.1;;;;;;;21.4;54.7;98940;;;;
2023/06/11 11:49:00;;;;;;;6.2;4;;;;;;;22;53.2;98930;;;;
2023/06/11 11:59:59;;;;;;;6.2;4;;;;;;;22.2;50.7;98930;;;;
2023/06/11 12:10:59;;;;;;;6.2;4;;;;;;;22.5;50.4;98920;;;;
2023/06/11 12:20:59;;;;;;;6.3;3.3;;;;;;;22.6;49.8;98920;;;;
2023/06/11 12:31:59;;;;;;;6.3;3.3;;;;;;;22.8;49.3;98910;;;;
2023/06/11 12:41:59;;;;;;;6.3;3.3;;;;;;;22.7;48.9;98920;;;;
2023/06/11 12:51:59;;;;;;;5.7;3;;;;;;;21.6;49;98910;;;;
2023/06/11 13:01:59;;;;;;;5.7;3;;;;;;;22.5;50;98900;;;;
2023/06/11 13:12:59;;;;;;;5.7;3;;;;;;;23.1;47.5;98900;;;;
2023/06/11 13:22:59;;;;;;;6;3.4;;;;;;;22.2;47.2;98900;;;;
2023/06/11 13:33:00;;;;;;;6;3.4;;;;;;;22.5;46.3;98910;;;;
2023/06/11 13:42:59;;;;;;;6;3.4;;;;;;;22.7;48.5;98900;;;;
2023/06/11 13:53:59;;;;;;;7;3.4;;;;;;;23.1;47.2;98890;;;;
2023/06/11 14:03:59;;;;;;;7;3.4;;;;;;;23.3;45.7;98890;;;;
2023/06/11 14:14:00;;;;;;;7;3.4;;;;;;;23.6;45.2;98870;;;;
2023/06/11 14:24:59;;;;;;;7.2;4;;;;;;;22.8;44.2;98880;;;;
2023/06/11 14:36:04;;;;;;;7.2;4;;;;;;;23.8;43.2;98890;;;;
2023/06/11 14:45:59;;;;;;;7.2;4;;;;;;;23.7;43.3;98880;;;;
2023/06/11 14:56:59;;;;;;;7.5;3.3;;;;;;;24;43.8;98880;;;;
2023/06/11 15:07:59;;;;;;;7.5;3.3;;;;;;;23.6;45.6;98880;;;;
2023/06/11 15:18:59;;;;;;;5.6;3.4;;;;;;;24.4;41;98870;;;;
2023/06/11 15:28:59;;;;;;;5.6;3.4;;;;;;;27.2;38.5;98860;;;;
2023/06/11 15:38:59;;;;;;;5.6;3.4;;;;;;;23.3;44.4;98880;;;;
2023/06/11 15:49:59;;;;;;;6.4;3.2;;;;;;;25.9;40.9;98870;;;;
2023/06/11 15:59:59;;;;;;;6.4;3.2;;;;;;;25.8;39.3;98880;;;;
2023/06/11 16:10:00;;;;;;;6.4;3.2;;;;;;;24.1;43.7;98880;;;;
2023/06/11 16:20:59;;;;;;;8.9;3;;;;;;;26.2;39.9;98870;;;;
2023/06/11 16:30:59;;;;;;;8.9;3;;;;;;;26.6;38.9;98880;;;;
2023/06/11 16:41:59;;;;;;;8.9;3;;;;;;;25.6;38.8;98890;;;;
2023/06/11 16:52:03;;;;;;;7.4;3.5;;;;;;;26.1;38.3;98890;;;;
2023/06/11 17:01:59;;;;;;;7.4;3.5;;;;;;;26.7;38.5;98900;;;;
2023/06/11 17:11:59;;;;;;;7.4;3.5;;;;;;;23.9;45.6;98920;;;;
2023/06/11 17:21:59;;;;;;;6.2;3;;;;;;;21.4;49.3;98920;;;;
2023/06/11 17:32:59;;;;;;;6.2;3;;;;;;;21;53.5;98950;;;;
2023/06/11 17:42:59;;;;;;;6.2;3;;;;;;;19.7;57.8;98960;;;;
2023/06/11 17:52:59;;;;;;;10.5;4.7;;;;;;;19.6;58.7;98970;;;;
2023/06/11 18:03:00;;;;;;;10.5;4.7;;;;;;;19.5;58.5;98980;;;;
2023/06/11 18:13:01;;;;;;;10.5;4.7;;;;;;;18.6;60.2;98990;;;;
2023/06/11 18:22:59;;;;;;;7.3;3.7;;;;;;;18.1;61.8;99000;;;;
2023/06/11 18:32:59;;;;;;;7.3;3.7;;;;;;;17.6;63.8;99010;;;;
2023/06/11 18:43:01;;;;;;;7.3;3.7;;;;;;;17.2;64.8;99020;;;;
2023/06/11 18:54:01;;;;;;;9.7;4;;;;;;;16.8;65.5;99020;;;;
2023/06/11 19:04:00;;;;;;;9.7;4;;;;;;;16.4;66.4;99030;;;;
2023/06/11 19:14:59;;;;;;;9.7;4;;;;;;;16.1;66.8;99040;;;;
2023/06/11 19:24:59;;;;;;;10.4;3.9;;;;;;;15.9;67.9;99050;;;;
2023/06/11 19:34:59;;;;;;;10.4;3.9;;;;;;;15.6;68.5;99060;;;;
2023/06/11 19:45:01;;;;;;;10.4;3.9;;;;;;;15.3;70.4;99060;;;;
2023/06/11 19:55:00;;;;;;;6.4;3.6;;;;;;;15.2;70.8;99070;;;;
2023/06/11 20:04:59;;;;;;;6.4;3.6;;;;;;;15.1;71.4;99070;;;;
2023/06/11 20:15:00;;;;;;;6.4;3.6;;;;;;;15.1;71.7;99070;;;;
2023/06/11 20:25:59;;;;;;;7;4.6;;;;;;;14.9;72.7;99080;;;;
2023/06/11 20:37:00;;;;;;;7;4.6;;;;;;;14.8;73.1;99080;;;;
2023/06/11 20:47:00;;;;;;;7;4.6;;;;;;;14.5;74;99080;;;;
2023/06/11 20:58:00;;;;;;;9.1;4.9;;;;;;;14.3;74.6;99090;;;;
2023/06/11 21:07:59;;;;;;;9.1;4.9;;;;;;;14;76.1;99090;;;;
2023/06/11 21:18:59;;;;;;;8.7;5.3;;;;;;;14;75.9;99100;;;;
2023/06/11 21:30:00;;;;;;;8.7;5.3;;;;;;;13.9;75.9;99100;;;;
2023/06/11 21:39:59;;;;;;;8.7;5.3;;;;;;;13.8;76.5;99090;;;;
2023/06/11 21:49:59;;;;;;;7.9;4.8;;;;;;;13.7;76.9;99100;;;;
2023/06/11 22:00:00;;;;;;;7.9;4.8;;;;;;;13.7;77.8;99090;;;;
2023/06/11 22:11:00;;;;;;;7.9;4.8;;;;;;;13.8;78.4;99090;;;;
2023/06/11 22:22:00;;;;;;;9.2;5.3;;;;;;;13.8;78.2;99090;;;;
2023/06/11 22:31:59;;;;;;;9.2;5.3;;;;;;;13.7;78.4;99080;;;;
2023/06/11 22:42:00;;;;;;;9.2;5.3;;;;;;;13.4;79.4;99080;;;;
2023/06/11 22:52:00;;;;;;;8.6;4.9;;;;;;;13.2;80.4;99070;;;;
2023/06/11 23:03:00;;;;;;;8.6;4.9;;;;;;;13;80.9;99070;;;;
2023/06/11 23:13:00;;;;;;;8.6;4.9;;;;;;;12.9;81;99070;;;;
2023/06/11 23:23:04;;;;;;;8.6;4.6;;;;;;;12.8;81.9;99060;;;;
2023/06/11 23:34:00;;;;;;;8.6;4.6;;;;;;;12.7;81.8;99060;;;;
2023/06/11 23:44:59;;;;;;;8.6;4.6;;;;;;;12.4;82.6;99060;;;;
2023/06/11 23:54:59;;;;;;;7.7;4.5;;;;;;;12.2;83.2;99060;;;;
